Aérodrome :
LOGIN :

S'inscrire | Disclaimer

   EN    FR    IT 

 










Légende :    VFR   VFR Marginal   IFR   IFR Intensif   IFR Très Intensif
Visi : 
Plafond : 
>= 8 km
>= 3000ft
5 à 8 km
1000 à 3000 ft
1500m à 5 km
500 à 1000 ft
800 à 1500m
200 à 500 ft
< 800m
< 200 ft
Symboles :   Orages  Brouillard  Fortes neiges  Fortes précipitations  Vent > 20 kt
SIGMETs :   Divers  Orages  Givrage  Turbulence  Onde Orograph.  Cendres Volcan.






- Altitude de l'aérodrome : 151 ft
- Code IATA : LSZ


LDLO - Lošinj Island

DERNIER METAR :
  • 011230Z 22008KT 190V270 CAVOK 31/20 Q1006

METARs EXPIRÉS :
  • 011200Z 23009KT 190V270 CAVOK 32/19 Q1006
  • 011130Z 22013KT CAVOK 31/19 Q1005
  • 011100Z 21014KT CAVOK 31/20 Q1005
  • 011030Z 19014KT CAVOK 31/20 Q1005
  • 011000Z 18012KT CAVOK 30/21 Q1005

TAF TAF LDLO
Valide du 01 à 12h jusqu'au 02 à 12h UTC


011125Z 0112/0212 21012KT 9999 FEW040 TX32/0112Z TN24/0204Z
BECMG 0112/0114 27008KT
PROB40
TEMPO 0112/0120 VRB20KT TSRA SCT035CB
TEMPO 0120/0123 27018KT



MET'MAP, la Météo Aéronautique d'un coup d'oeil ! - Copyright ORBIFLY Décembre 2007 - Disclaimer

ORBIFLY MET'MAP TEAM :

Programmation & Développement : Alexandra Zaïnal
Sur une idée originale de : Baudouin d'Aumeries
Assistance à la programmation : Marc-Olivier Méhu
Soutien technique & logistique : Manuel Goepfert

Contact : metmap@orbifly.com




SOURCES & CREDITS :

   NOAA